sensor_id;sensor_type;location;lat;lon;timestamp;P1;durP1;ratioP1;P2;durP2;ratioP2
12433;SDS011;6281;49.038;8.372;2023-06-10T00:02:23;6.53;;;5.93;;
12433;SDS011;6281;49.038;8.372;2023-06-10T00:04:53;6.50;;;5.90;;
12433;SDS011;6281;49.038;8.372;2023-06-10T00:07:22;5.90;;;5.40;;
12433;SDS011;6281;49.038;8.372;2023-06-10T00:09:48;6.00;;;5.40;;
12433;SDS011;6281;49.038;8.372;2023-06-10T00:12:16;6.27;;;5.53;;
12433;SDS011;6281;49.038;8.372;2023-06-10T00:14:45;6.47;;;5.87;;
12433;SDS011;6281;49.038;8.372;2023-06-10T00:17:15;6.10;;;5.50;;
12433;SDS011;6281;49.038;8.372;2023-06-10T00:19:42;6.23;;;5.63;;
12433;SDS011;6281;49.038;8.372;2023-06-10T00:22:13;7.70;;;6.53;;
12433;SDS011;6281;49.038;8.372;2023-06-10T00:24:40;7.83;;;6.37;;
12433;SDS011;6281;49.038;8.372;2023-06-10T00:27:07;6.40;;;5.80;;
12433;SDS011;6281;49.038;8.372;2023-06-10T00:29:34;7.67;;;5.60;;
12433;SDS011;6281;49.038;8.372;2023-06-10T00:32:01;6.27;;;5.67;;
12433;SDS011;6281;49.038;8.372;2023-06-10T00:34:29;6.97;;;6.10;;
12433;SDS011;6281;49.038;8.372;2023-06-10T00:36:57;6.73;;;6.03;;
12433;SDS011;6281;49.038;8.372;2023-06-10T00:39:25;6.43;;;5.73;;
12433;SDS011;6281;49.038;8.372;2023-06-10T00:41:52;8.10;;;6.60;;
12433;SDS011;6281;49.038;8.372;2023-06-10T00:44:19;7.63;;;6.67;;
12433;SDS011;6281;49.038;8.372;2023-06-10T00:46:53;7.60;;;6.40;;
12433;SDS011;6281;49.038;8.372;2023-06-10T00:49:21;6.40;;;5.80;;
12433;SDS011;6281;49.038;8.372;2023-06-10T00:51:47;8.23;;;6.17;;
12433;SDS011;6281;49.038;8.372;2023-06-10T00:54:15;6.97;;;6.30;;
12433;SDS011;6281;49.038;8.372;2023-06-10T00:56:44;7.37;;;6.33;;
12433;SDS011;6281;49.038;8.372;2023-06-10T00:59:12;8.93;;;6.83;;
12433;SDS011;6281;49.038;8.372;2023-06-10T01:01:40;6.90;;;5.93;;
12433;SDS011;6281;49.038;8.372;2023-06-10T01:04:08;6.33;;;5.73;;
12433;SDS011;6281;49.038;8.372;2023-06-10T01:06:43;6.73;;;6.13;;
12433;SDS011;6281;49.038;8.372;2023-06-10T01:09:18;7.87;;;6.13;;
12433;SDS011;6281;49.038;8.372;2023-06-10T01:11:52;7.47;;;6.60;;
12433;SDS011;6281;49.038;8.372;2023-06-10T01:14:24;7.37;;;6.60;;
12433;SDS011;6281;49.038;8.372;2023-06-10T01:16:52;7.43;;;6.73;;
12433;SDS011;6281;49.038;8.372;2023-06-10T01:19:19;7.00;;;6.40;;
12433;SDS011;6281;49.038;8.372;2023-06-10T01:21:50;7.87;;;7.10;;
12433;SDS011;6281;49.038;8.372;2023-06-10T01:24:20;7.17;;;6.43;;
12433;SDS011;6281;49.038;8.372;2023-06-10T01:26:47;7.70;;;6.47;;
12433;SDS011;6281;49.038;8.372;2023-06-10T01:29:17;7.63;;;6.40;;
12433;SDS011;6281;49.038;8.372;2023-06-10T01:31:48;7.27;;;6.20;;
12433;SDS011;6281;49.038;8.372;2023-06-10T01:34:18;6.57;;;5.97;;
12433;SDS011;6281;49.038;8.372;2023-06-10T01:36:48;9.83;;;6.63;;
12433;SDS011;6281;49.038;8.372;2023-06-10T01:39:19;8.20;;;6.57;;
12433;SDS011;6281;49.038;8.372;2023-06-10T01:41:48;6.83;;;6.13;;
12433;SDS011;6281;49.038;8.372;2023-06-10T01:44:17;7.30;;;6.37;;
12433;SDS011;6281;49.038;8.372;2023-06-10T01:47:03;7.20;;;6.47;;
12433;SDS011;6281;49.038;8.372;2023-06-10T01:49:30;6.70;;;6.00;;
12433;SDS011;6281;49.038;8.372;2023-06-10T01:51:57;7.07;;;6.37;;
12433;SDS011;6281;49.038;8.372;2023-06-10T01:54:25;6.43;;;5.83;;
12433;SDS011;6281;49.038;8.372;2023-06-10T01:56:52;7.37;;;6.50;;
12433;SDS011;6281;49.038;8.372;2023-06-10T01:59:20;8.27;;;6.23;;
12433;SDS011;6281;49.038;8.372;2023-06-10T02:01:47;7.00;;;6.30;;
12433;SDS011;6281;49.038;8.372;2023-06-10T02:04:14;7.70;;;6.30;;
12433;SDS011;6281;49.038;8.372;2023-06-10T02:06:41;8.07;;;7.00;;
12433;SDS011;6281;49.038;8.372;2023-06-10T02:09:08;8.60;;;6.13;;
12433;SDS011;6281;49.038;8.372;2023-06-10T02:11:37;7.23;;;6.53;;
12433;SDS011;6281;49.038;8.372;2023-06-10T02:14:04;8.00;;;6.77;;
12433;SDS011;6281;49.038;8.372;2023-06-10T02:16:30;6.83;;;6.13;;
12433;SDS011;6281;49.038;8.372;2023-06-10T02:18:57;7.47;;;6.50;;
12433;SDS011;6281;49.038;8.372;2023-06-10T02:21:25;7.77;;;6.67;;
12433;SDS011;6281;49.038;8.372;2023-06-10T02:23:52;9.43;;;7.00;;
12433;SDS011;6281;49.038;8.372;2023-06-10T02:26:19;7.77;;;6.53;;
12433;SDS011;6281;49.038;8.372;2023-06-10T02:28:47;7.10;;;6.40;;
12433;SDS011;6281;49.038;8.372;2023-06-10T02:31:14;7.33;;;6.63;;
12433;SDS011;6281;49.038;8.372;2023-06-10T02:33:43;6.83;;;6.20;;
12433;SDS011;6281;49.038;8.372;2023-06-10T02:36:10;8.17;;;7.03;;
12433;SDS011;6281;49.038;8.372;2023-06-10T02:38:38;7.43;;;6.67;;
12433;SDS011;6281;49.038;8.372;2023-06-10T02:41:05;7.13;;;6.43;;
12433;SDS011;6281;49.038;8.372;2023-06-10T02:43:32;7.97;;;6.87;;
12433;SDS011;6281;49.038;8.372;2023-06-10T02:46:17;8.00;;;6.47;;
12433;SDS011;6281;49.038;8.372;2023-06-10T02:48:45;7.20;;;6.50;;
12433;SDS011;6281;49.038;8.372;2023-06-10T02:51:14;7.97;;;6.77;;
12433;SDS011;6281;49.038;8.372;2023-06-10T02:53:41;8.23;;;6.80;;
12433;SDS011;6281;49.038;8.372;2023-06-10T02:56:08;8.77;;;6.80;;
12433;SDS011;6281;49.038;8.372;2023-06-10T02:58:34;7.03;;;6.43;;
12433;SDS011;6281;49.038;8.372;2023-06-10T03:01:02;7.20;;;6.50;;
12433;SDS011;6281;49.038;8.372;2023-06-10T03:03:30;7.30;;;6.33;;
12433;SDS011;6281;49.038;8.372;2023-06-10T03:05:58;8.20;;;7.40;;
12433;SDS011;6281;49.038;8.372;2023-06-10T03:08:25;6.93;;;6.23;;
12433;SDS011;6281;49.038;8.372;2023-06-10T03:10:52;6.43;;;5.83;;
12433;SDS011;6281;49.038;8.372;2023-06-10T03:13:18;8.33;;;6.30;;
12433;SDS011;6281;49.038;8.372;2023-06-10T03:15:46;7.57;;;6.60;;
12433;SDS011;6281;49.038;8.372;2023-06-10T03:18:12;6.50;;;5.83;;
12433;SDS011;6281;49.038;8.372;2023-06-10T03:20:41;8.37;;;6.33;;
12433;SDS011;6281;49.038;8.372;2023-06-10T03:23:09;7.93;;;6.37;;
12433;SDS011;6281;49.038;8.372;2023-06-10T03:25:36;7.83;;;7.03;;
12433;SDS011;6281;49.038;8.372;2023-06-10T03:28:03;6.27;;;5.63;;
12433;SDS011;6281;49.038;8.372;2023-06-10T03:30:30;7.33;;;6.63;;
12433;SDS011;6281;49.038;8.372;2023-06-10T03:32:57;6.47;;;5.87;;
12433;SDS011;6281;49.038;8.372;2023-06-10T03:35:23;7.60;;;6.47;;
12433;SDS011;6281;49.038;8.372;2023-06-10T03:37:52;8.10;;;6.70;;
12433;SDS011;6281;49.038;8.372;2023-06-10T03:40:19;9.23;;;6.53;;
12433;SDS011;6281;49.038;8.372;2023-06-10T03:42:45;6.73;;;5.83;;
12433;SDS011;6281;49.038;8.372;2023-06-10T03:45:13;7.43;;;6.60;;
12433;SDS011;6281;49.038;8.372;2023-06-10T03:47:40;7.83;;;6.03;;
12433;SDS011;6281;49.038;8.372;2023-06-10T03:50:08;6.60;;;5.93;;
12433;SDS011;6281;49.038;8.372;2023-06-10T03:52:37;6.80;;;6.13;;
12433;SDS011;6281;49.038;8.372;2023-06-10T03:55:06;6.50;;;5.73;;
12433;SDS011;6281;49.038;8.372;2023-06-10T03:57:43;7.10;;;6.40;;
12433;SDS011;6281;49.038;8.372;2023-06-10T04:00:11;7.03;;;6.33;;
12433;SDS011;6281;49.038;8.372;2023-06-10T04:02:38;8.10;;;6.37;;
12433;SDS011;6281;49.038;8.372;2023-06-10T04:05:10;6.80;;;6.10;;
12433;SDS011;6281;49.038;8.372;2023-06-10T04:07:37;7.20;;;6.50;;
12433;SDS011;6281;49.038;8.372;2023-06-10T04:10:07;9.47;;;7.27;;
12433;SDS011;6281;49.038;8.372;2023-06-10T04:12:35;6.97;;;6.27;;
12433;SDS011;6281;49.038;8.372;2023-06-10T04:15:02;8.43;;;6.70;;
12433;SDS011;6281;49.038;8.372;2023-06-10T04:17:29;6.93;;;6.23;;
12433;SDS011;6281;49.038;8.372;2023-06-10T04:19:56;7.07;;;6.40;;
12433;SDS011;6281;49.038;8.372;2023-06-10T04:22:23;9.33;;;6.40;;
12433;SDS011;6281;49.038;8.372;2023-06-10T04:24:50;6.63;;;6.03;;
12433;SDS011;6281;49.038;8.372;2023-06-10T04:27:18;6.83;;;6.13;;
12433;SDS011;6281;49.038;8.372;2023-06-10T04:29:45;8.13;;;6.37;;
12433;SDS011;6281;49.038;8.372;2023-06-10T04:32:12;7.30;;;6.50;;
12433;SDS011;6281;49.038;8.372;2023-06-10T04:34:39;7.33;;;5.50;;
12433;SDS011;6281;49.038;8.372;2023-06-10T04:37:06;6.87;;;6.17;;
12433;SDS011;6281;49.038;8.372;2023-06-10T04:39:32;6.20;;;5.57;;
12433;SDS011;6281;49.038;8.372;2023-06-10T04:41:59;6.20;;;5.60;;
12433;SDS011;6281;49.038;8.372;2023-06-10T04:44:28;6.47;;;5.80;;
12433;SDS011;6281;49.038;8.372;2023-06-10T04:46:55;6.20;;;5.60;;
12433;SDS011;6281;49.038;8.372;2023-06-10T04:49:22;6.50;;;5.80;;
12433;SDS011;6281;49.038;8.372;2023-06-10T04:51:49;6.50;;;5.90;;
12433;SDS011;6281;49.038;8.372;2023-06-10T04:54:16;6.03;;;5.43;;
12433;SDS011;6281;49.038;8.372;2023-06-10T04:56:43;6.67;;;5.83;;
12433;SDS011;6281;49.038;8.372;2023-06-10T04:59:10;6.77;;;5.67;;
12433;SDS011;6281;49.038;8.372;2023-06-10T05:01:38;6.37;;;5.73;;
12433;SDS011;6281;49.038;8.372;2023-06-10T05:04:05;5.83;;;5.20;;
12433;SDS011;6281;49.038;8.372;2023-06-10T05:06:31;6.70;;;5.50;;
12433;SDS011;6281;49.038;8.372;2023-06-10T05:08:58;5.63;;;5.03;;
12433;SDS011;6281;49.038;8.372;2023-06-10T05:11:25;5.93;;;5.27;;
12433;SDS011;6281;49.038;8.372;2023-06-10T05:13:52;6.07;;;5.53;;
12433;SDS011;6281;49.038;8.372;2023-06-10T05:16:18;6.90;;;5.33;;
12433;SDS011;6281;49.038;8.372;2023-06-10T05:18:47;5.97;;;5.37;;
12433;SDS011;6281;49.038;8.372;2023-06-10T05:21:16;6.93;;;5.57;;
12433;SDS011;6281;49.038;8.372;2023-06-10T05:23:42;6.60;;;5.60;;
12433;SDS011;6281;49.038;8.372;2023-06-10T05:26:09;5.87;;;5.30;;
12433;SDS011;6281;49.038;8.372;2023-06-10T05:28:36;5.80;;;5.30;;
12433;SDS011;6281;49.038;8.372;2023-06-10T05:31:03;5.60;;;5.00;;
12433;SDS011;6281;49.038;8.372;2023-06-10T05:33:30;6.13;;;5.17;;
12433;SDS011;6281;49.038;8.372;2023-06-10T05:35:58;5.70;;;5.20;;
12433;SDS011;6281;49.038;8.372;2023-06-10T05:38:24;5.70;;;4.73;;
12433;SDS011;6281;49.038;8.372;2023-06-10T05:40:51;10.40;;;5.70;;
12433;SDS011;6281;49.038;8.372;2023-06-10T05:43:18;6.07;;;5.47;;
12433;SDS011;6281;49.038;8.372;2023-06-10T05:45:45;5.67;;;5.13;;
12433;SDS011;6281;49.038;8.372;2023-06-10T05:48:11;6.10;;;5.40;;
12433;SDS011;6281;49.038;8.372;2023-06-10T05:50:38;9.40;;;5.37;;
12433;SDS011;6281;49.038;8.372;2023-06-10T05:53:08;5.90;;;5.33;;
12433;SDS011;6281;49.038;8.372;2023-06-10T05:55:39;6.30;;;4.93;;
12433;SDS011;6281;49.038;8.372;2023-06-10T05:58:06;6.53;;;5.83;;
12433;SDS011;6281;49.038;8.372;2023-06-10T06:00:33;6.00;;;5.20;;
12433;SDS011;6281;49.038;8.372;2023-06-10T06:03:00;5.60;;;4.93;;
12433;SDS011;6281;49.038;8.372;2023-06-10T06:05:27;5.30;;;4.80;;
12433;SDS011;6281;49.038;8.372;2023-06-10T06:07:59;5.80;;;5.20;;
12433;SDS011;6281;49.038;8.372;2023-06-10T06:10:27;7.20;;;5.30;;
12433;SDS011;6281;49.038;8.372;2023-06-10T06:12:54;5.13;;;4.70;;
12433;SDS011;6281;49.038;8.372;2023-06-10T06:15:21;7.03;;;5.33;;
12433;SDS011;6281;49.038;8.372;2023-06-10T06:17:48;6.37;;;5.40;;
12433;SDS011;6281;49.038;8.372;2023-06-10T06:20:17;5.47;;;4.97;;
12433;SDS011;6281;49.038;8.372;2023-06-10T06:22:44;5.83;;;4.93;;
12433;SDS011;6281;49.038;8.372;2023-06-10T06:25:11;5.10;;;4.57;;
12433;SDS011;6281;49.038;8.372;2023-06-10T06:27:39;6.80;;;5.03;;
12433;SDS011;6281;49.038;8.372;2023-06-10T06:30:06;4.90;;;4.40;;
12433;SDS011;6281;49.038;8.372;2023-06-10T06:32:33;6.23;;;4.67;;
12433;SDS011;6281;49.038;8.372;2023-06-10T06:35:00;5.67;;;4.80;;
12433;SDS011;6281;49.038;8.372;2023-06-10T06:37:27;4.90;;;4.40;;
12433;SDS011;6281;49.038;8.372;2023-06-10T06:39:54;5.20;;;4.70;;
12433;SDS011;6281;49.038;8.372;2023-06-10T06:42:21;5.03;;;4.20;;
12433;SDS011;6281;49.038;8.372;2023-06-10T06:44:49;4.77;;;4.27;;
12433;SDS011;6281;49.038;8.372;2023-06-10T06:47:16;5.20;;;4.70;;
12433;SDS011;6281;49.038;8.372;2023-06-10T06:49:44;5.23;;;4.73;;
12433;SDS011;6281;49.038;8.372;2023-06-10T06:52:11;4.47;;;4.07;;
12433;SDS011;6281;49.038;8.372;2023-06-10T06:54:39;5.70;;;4.47;;
12433;SDS011;6281;49.038;8.372;2023-06-10T06:57:14;4.83;;;4.20;;
12433;SDS011;6281;49.038;8.372;2023-06-10T06:59:41;4.93;;;4.43;;
12433;SDS011;6281;49.038;8.372;2023-06-10T07:02:10;4.77;;;4.23;;
12433;SDS011;6281;49.038;8.372;2023-06-10T07:04:37;4.70;;;4.20;;
12433;SDS011;6281;49.038;8.372;2023-06-10T07:07:06;5.20;;;4.10;;
12433;SDS011;6281;49.038;8.372;2023-06-10T07:09:33;5.63;;;4.30;;
12433;SDS011;6281;49.038;8.372;2023-06-10T07:12:00;4.40;;;4.00;;
12433;SDS011;6281;49.038;8.372;2023-06-10T07:14:27;4.73;;;4.33;;
12433;SDS011;6281;49.038;8.372;2023-06-10T07:16:53;5.10;;;4.60;;
12433;SDS011;6281;49.038;8.372;2023-06-10T07:19:21;4.63;;;4.23;;
12433;SDS011;6281;49.038;8.372;2023-06-10T07:21:48;3.83;;;3.50;;
12433;SDS011;6281;49.038;8.372;2023-06-10T07:24:15;4.17;;;3.77;;
12433;SDS011;6281;49.038;8.372;2023-06-10T07:26:42;4.87;;;4.37;;
12433;SDS011;6281;49.038;8.372;2023-06-10T07:29:09;4.20;;;3.80;;
12433;SDS011;6281;49.038;8.372;2023-06-10T07:31:35;4.67;;;4.17;;
12433;SDS011;6281;49.038;8.372;2023-06-10T07:34:02;5.33;;;4.13;;
12433;SDS011;6281;49.038;8.372;2023-06-10T07:36:30;4.53;;;3.93;;
12433;SDS011;6281;49.038;8.372;2023-06-10T07:38:57;4.60;;;4.20;;
12433;SDS011;6281;49.038;8.372;2023-06-10T07:41:24;4.73;;;4.23;;
12433;SDS011;6281;49.038;8.372;2023-06-10T07:43:51;5.33;;;4.73;;
12433;SDS011;6281;49.038;8.372;2023-06-10T07:46:21;5.13;;;4.53;;
12433;SDS011;6281;49.038;8.372;2023-06-10T07:48:48;4.97;;;4.27;;
12433;SDS011;6281;49.038;8.372;2023-06-10T07:51:15;4.53;;;4.13;;
12433;SDS011;6281;49.038;8.372;2023-06-10T07:53:43;4.63;;;4.13;;
12433;SDS011;6281;49.038;8.372;2023-06-10T07:56:10;4.00;;;3.60;;
12433;SDS011;6281;49.038;8.372;2023-06-10T07:58:37;4.47;;;4.07;;
12433;SDS011;6281;49.038;8.372;2023-06-10T08:01:04;4.37;;;3.70;;
12433;SDS011;6281;49.038;8.372;2023-06-10T08:03:32;4.40;;;3.73;;
12433;SDS011;6281;49.038;8.372;2023-06-10T08:05:59;5.00;;;3.53;;
12433;SDS011;6281;49.038;8.372;2023-06-10T08:08:26;4.23;;;3.70;;
12433;SDS011;6281;49.038;8.372;2023-06-10T08:10:54;4.73;;;3.93;;
12433;SDS011;6281;49.038;8.372;2023-06-10T08:13:20;4.10;;;3.70;;
12433;SDS011;6281;49.038;8.372;2023-06-10T08:15:47;4.10;;;3.70;;
12433;SDS011;6281;49.038;8.372;2023-06-10T08:18:15;4.17;;;3.77;;
12433;SDS011;6281;49.038;8.372;2023-06-10T08:20:42;3.63;;;3.33;;
12433;SDS011;6281;49.038;8.372;2023-06-10T08:23:09;4.27;;;3.87;;
12433;SDS011;6281;49.038;8.372;2023-06-10T08:25:36;4.47;;;3.50;;
12433;SDS011;6281;49.038;8.372;2023-06-10T08:28:04;3.47;;;3.17;;
12433;SDS011;6281;49.038;8.372;2023-06-10T08:30:31;4.20;;;3.80;;
12433;SDS011;6281;49.038;8.372;2023-06-10T08:32:57;4.60;;;4.20;;
12433;SDS011;6281;49.038;8.372;2023-06-10T08:35:24;4.40;;;4.00;;
12433;SDS011;6281;49.038;8.372;2023-06-10T08:37:51;4.67;;;3.73;;
12433;SDS011;6281;49.038;8.372;2023-06-10T08:40:18;4.30;;;3.90;;
12433;SDS011;6281;49.038;8.372;2023-06-10T08:42:45;5.13;;;4.17;;
12433;SDS011;6281;49.038;8.372;2023-06-10T08:45:20;6.57;;;3.97;;
12433;SDS011;6281;49.038;8.372;2023-06-10T08:47:50;4.03;;;3.63;;
12433;SDS011;6281;49.038;8.372;2023-06-10T08:50:18;4.20;;;3.80;;
12433;SDS011;6281;49.038;8.372;2023-06-10T08:52:46;4.30;;;3.90;;
12433;SDS011;6281;49.038;8.372;2023-06-10T08:55:15;4.17;;;3.73;;
12433;SDS011;6281;49.038;8.372;2023-06-10T08:57:47;4.30;;;3.90;;
12433;SDS011;6281;49.038;8.372;2023-06-10T09:00:15;4.67;;;3.73;;
12433;SDS011;6281;49.038;8.372;2023-06-10T09:02:44;4.47;;;4.07;;
12433;SDS011;6281;49.038;8.372;2023-06-10T09:05:11;4.53;;;4.00;;
12433;SDS011;6281;49.038;8.372;2023-06-10T09:07:40;3.90;;;3.60;;
12433;SDS011;6281;49.038;8.372;2023-06-10T09:10:09;4.30;;;3.90;;
12433;SDS011;6281;49.038;8.372;2023-06-10T09:12:37;4.73;;;4.33;;
12433;SDS011;6281;49.038;8.372;2023-06-10T09:15:04;4.40;;;4.00;;
12433;SDS011;6281;49.038;8.372;2023-06-10T09:17:32;5.20;;;4.38;;
12433;SDS011;6281;49.038;8.372;2023-06-10T09:20:02;4.82;;;4.35;;
12433;SDS011;6281;49.038;8.372;2023-06-10T09:22:29;4.85;;;4.20;;
12433;SDS011;6281;49.038;8.372;2023-06-10T09:25:03;5.10;;;4.35;;
12433;SDS011;6281;49.038;8.372;2023-06-10T09:27:31;4.80;;;4.30;;
12433;SDS011;6281;49.038;8.372;2023-06-10T09:29:58;7.70;;;4.43;;
12433;SDS011;6281;49.038;8.372;2023-06-10T09:32:25;5.07;;;4.38;;
12433;SDS011;6281;49.038;8.372;2023-06-10T09:41:20;4.55;;;4.15;;
12433;SDS011;6281;49.038;8.372;2023-06-10T09:47:21;4.30;;;3.97;;
12433;SDS011;6281;49.038;8.372;2023-06-10T09:50:50;4.50;;;4.10;;
12433;SDS011;6281;49.038;8.372;2023-06-10T09:54:21;4.63;;;4.22;;
12433;SDS011;6281;49.038;8.372;2023-06-10T09:57:10;4.95;;;4.55;;
12433;SDS011;6281;49.038;8.372;2023-06-10T10:00:11;4.28;;;3.88;;
12433;SDS011;6281;49.038;8.372;2023-06-10T10:06:30;5.28;;;4.30;;
12433;SDS011;6281;49.038;8.372;2023-06-10T10:15:48;4.80;;;4.32;;
12433;SDS011;6281;49.038;8.372;2023-06-10T10:18:16;4.90;;;4.30;;
12433;SDS011;6281;49.038;8.372;2023-06-10T10:20:49;4.75;;;4.25;;
12433;SDS011;6281;49.038;8.372;2023-06-10T10:23:18;4.45;;;4.05;;
12433;SDS011;6281;49.038;8.372;2023-06-10T10:25:49;5.20;;;4.10;;
12433;SDS011;6281;49.038;8.372;2023-06-10T10:28:19;4.80;;;4.07;;
12433;SDS011;6281;49.038;8.372;2023-06-10T10:30:51;4.55;;;4.15;;
12433;SDS011;6281;49.038;8.372;2023-06-10T10:33:22;5.50;;;4.05;;
12433;SDS011;6281;49.038;8.372;2023-06-10T10:35:57;4.20;;;3.80;;
12433;SDS011;6281;49.038;8.372;2023-06-10T10:38:24;4.60;;;3.95;;
12433;SDS011;6281;49.038;8.372;2023-06-10T10:40:52;4.80;;;4.30;;
12433;SDS011;6281;49.038;8.372;2023-06-10T10:43:21;5.43;;;4.25;;
12433;SDS011;6281;49.038;8.372;2023-06-10T10:45:58;4.55;;;4.15;;
12433;SDS011;6281;49.038;8.372;2023-06-10T10:48:25;4.40;;;4.00;;
12433;SDS011;6281;49.038;8.372;2023-06-10T10:50:57;4.20;;;3.80;;
12433;SDS011;6281;49.038;8.372;2023-06-10T10:53:24;4.05;;;3.65;;
12433;SDS011;6281;49.038;8.372;2023-06-10T10:55:58;4.25;;;3.75;;
12433;SDS011;6281;49.038;8.372;2023-06-10T10:58:25;4.68;;;4.28;;
12433;SDS011;6281;49.038;8.372;2023-06-10T11:00:52;3.88;;;3.58;;
12433;SDS011;6281;49.038;8.372;2023-06-10T11:03:20;4.05;;;3.72;;
12433;SDS011;6281;49.038;8.372;2023-06-10T11:05:47;4.05;;;3.67;;
12433;SDS011;6281;49.038;8.372;2023-06-10T11:08:15;4.75;;;4.35;;
12433;SDS011;6281;49.038;8.372;2023-06-10T11:11:17;4.95;;;3.60;;
12433;SDS011;6281;49.038;8.372;2023-06-10T11:13:57;4.15;;;3.78;;
12433;SDS011;6281;49.038;8.372;2023-06-10T11:16:25;4.53;;;3.85;;
12433;SDS011;6281;49.038;8.372;2023-06-10T11:18:55;3.55;;;3.25;;
12433;SDS011;6281;49.038;8.372;2023-06-10T11:21:23;4.05;;;3.65;;
12433;SDS011;6281;49.038;8.372;2023-06-10T11:23:50;4.50;;;4.10;;
12433;SDS011;6281;49.038;8.372;2023-06-10T11:26:18;4.20;;;3.80;;
12433;SDS011;6281;49.038;8.372;2023-06-10T11:29:08;4.07;;;3.67;;
12433;SDS011;6281;49.038;8.372;2023-06-10T11:31:42;4.15;;;3.75;;
12433;SDS011;6281;49.038;8.372;2023-06-10T11:34:20;3.97;;;3.67;;
12433;SDS011;6281;49.038;8.372;2023-06-10T11:36:49;4.03;;;3.60;;
12433;SDS011;6281;49.038;8.372;2023-06-10T11:39:20;4.13;;;3.72;;
12433;SDS011;6281;49.038;8.372;2023-06-10T11:41:51;4.68;;;3.85;;
12433;SDS011;6281;49.038;8.372;2023-06-10T11:44:18;4.40;;;4.00;;
12433;SDS011;6281;49.038;8.372;2023-06-10T11:46:45;4.13;;;3.83;;
12433;SDS011;6281;49.038;8.372;2023-06-10T11:49:14;4.28;;;3.88;;
12433;SDS011;6281;49.038;8.372;2023-06-10T11:51:43;3.53;;;3.22;;
12433;SDS011;6281;49.038;8.372;2023-06-10T11:54:17;3.80;;;3.50;;
12433;SDS011;6281;49.038;8.372;2023-06-10T11:56:44;3.78;;;3.47;;
12433;SDS011;6281;49.038;8.372;2023-06-10T11:59:12;6.35;;;3.30;;
12433;SDS011;6281;49.038;8.372;2023-06-10T12:01:42;3.95;;;3.65;;
12433;SDS011;6281;49.038;8.372;2023-06-10T12:04:10;4.03;;;3.40;;
12433;SDS011;6281;49.038;8.372;2023-06-10T12:06:39;4.03;;;3.58;;
12433;SDS011;6281;49.038;8.372;2023-06-10T12:09:07;2.95;;;2.75;;
12433;SDS011;6281;49.038;8.372;2023-06-10T12:11:40;3.65;;;3.35;;
12433;SDS011;6281;49.038;8.372;2023-06-10T12:14:08;4.13;;;3.75;;
12433;SDS011;6281;49.038;8.372;2023-06-10T12:16:35;4.60;;;3.70;;
12433;SDS011;6281;49.038;8.372;2023-06-10T12:19:02;3.65;;;3.35;;
12433;SDS011;6281;49.038;8.372;2023-06-10T12:21:31;3.80;;;3.50;;
12433;SDS011;6281;49.038;8.372;2023-06-10T12:24:01;3.60;;;3.30;;
12433;SDS011;6281;49.038;8.372;2023-06-10T12:26:39;3.85;;;3.47;;
12433;SDS011;6281;49.038;8.372;2023-06-10T12:29:15;3.70;;;3.15;;
12433;SDS011;6281;49.038;8.372;2023-06-10T12:31:53;5.53;;;3.85;;
12433;SDS011;6281;49.038;8.372;2023-06-10T12:34:34;3.88;;;3.58;;
12433;SDS011;6281;49.038;8.372;2023-06-10T12:37:03;3.60;;;3.30;;
12433;SDS011;6281;49.038;8.372;2023-06-10T12:39:32;4.07;;;3.67;;
12433;SDS011;6281;49.038;8.372;2023-06-10T12:42:00;3.97;;;3.67;;
12433;SDS011;6281;49.038;8.372;2023-06-10T12:44:28;3.80;;;3.50;;
12433;SDS011;6281;49.038;8.372;2023-06-10T12:46:56;3.40;;;3.10;;
12433;SDS011;6281;49.038;8.372;2023-06-10T12:49:23;3.63;;;3.33;;
12433;SDS011;6281;49.038;8.372;2023-06-10T12:51:51;3.42;;;3.17;;
12433;SDS011;6281;49.038;8.372;2023-06-10T12:54:19;3.70;;;3.40;;
12433;SDS011;6281;49.038;8.372;2023-06-10T12:56:47;3.40;;;3.10;;
12433;SDS011;6281;49.038;8.372;2023-06-10T12:59:14;3.55;;;3.25;;
12433;SDS011;6281;49.038;8.372;2023-06-10T13:01:41;3.53;;;3.22;;
12433;SDS011;6281;49.038;8.372;2023-06-10T13:04:07;6.35;;;3.40;;
12433;SDS011;6281;49.038;8.372;2023-06-10T13:06:34;4.55;;;3.42;;
12433;SDS011;6281;49.038;8.372;2023-06-10T13:09:03;3.20;;;3.00;;
12433;SDS011;6281;49.038;8.372;2023-06-10T13:11:32;3.30;;;3.00;;
12433;SDS011;6281;49.038;8.372;2023-06-10T13:14:01;3.50;;;3.20;;
12433;SDS011;6281;49.038;8.372;2023-06-10T13:16:29;3.28;;;3.00;;
12433;SDS011;6281;49.038;8.372;2023-06-10T13:18:56;3.58;;;3.28;;
12433;SDS011;6281;49.038;8.372;2023-06-10T13:21:23;3.40;;;3.10;;
12433;SDS011;6281;49.038;8.372;2023-06-10T13:23:50;3.45;;;3.15;;
12433;SDS011;6281;49.038;8.372;2023-06-10T13:26:17;4.05;;;3.65;;
12433;SDS011;6281;49.038;8.372;2023-06-10T13:28:45;4.07;;;3.40;;
12433;SDS011;6281;49.038;8.372;2023-06-10T13:31:13;3.75;;;3.42;;
12433;SDS011;6281;49.038;8.372;2023-06-10T13:33:40;4.82;;;3.60;;
12433;SDS011;6281;49.038;8.372;2023-06-10T13:36:08;4.60;;;3.50;;
12433;SDS011;6281;49.038;8.372;2023-06-10T13:38:35;3.50;;;3.22;;
12433;SDS011;6281;49.038;8.372;2023-06-10T13:41:02;4.60;;;3.50;;
12433;SDS011;6281;49.038;8.372;2023-06-10T13:43:29;3.80;;;3.47;;
12433;SDS011;6281;49.038;8.372;2023-06-10T13:45:56;3.80;;;3.50;;
12433;SDS011;6281;49.038;8.372;2023-06-10T13:48:24;5.85;;;3.78;;
12433;SDS011;6281;49.038;8.372;2023-06-10T13:50:51;6.05;;;3.50;;
12433;SDS011;6281;49.038;8.372;2023-06-10T13:53:18;3.75;;;3.40;;
12433;SDS011;6281;49.038;8.372;2023-06-10T13:55:45;3.80;;;3.50;;
12433;SDS011;6281;49.038;8.372;2023-06-10T13:58:12;4.15;;;3.55;;
12433;SDS011;6281;49.038;8.372;2023-06-10T14:00:39;3.83;;;3.45;;
12433;SDS011;6281;49.038;8.372;2023-06-10T14:03:06;3.80;;;3.47;;
12433;SDS011;6281;49.038;8.372;2023-06-10T14:05:34;3.97;;;3.67;;
12433;SDS011;6281;49.038;8.372;2023-06-10T14:08:01;3.63;;;3.33;;
12433;SDS011;6281;49.038;8.372;2023-06-10T14:10:28;4.88;;;3.67;;
12433;SDS011;6281;49.038;8.372;2023-06-10T14:12:54;4.18;;;3.40;;
12433;SDS011;6281;49.038;8.372;2023-06-10T14:15:21;4.05;;;3.75;;
12433;SDS011;6281;49.038;8.372;2023-06-10T14:17:48;3.80;;;3.50;;
12433;SDS011;6281;49.038;8.372;2023-06-10T14:20:15;3.78;;;3.47;;
12433;SDS011;6281;49.038;8.372;2023-06-10T14:22:43;3.75;;;3.45;;
12433;SDS011;6281;49.038;8.372;2023-06-10T14:25:10;4.15;;;3.75;;
12433;SDS011;6281;49.038;8.372;2023-06-10T14:27:37;4.13;;;3.58;;
12433;SDS011;6281;49.038;8.372;2023-06-10T14:30:04;3.78;;;3.40;;
12433;SDS011;6281;49.038;8.372;2023-06-10T14:32:32;3.85;;;3.55;;
12433;SDS011;6281;49.038;8.372;2023-06-10T14:34:59;3.70;;;3.40;;
12433;SDS011;6281;49.038;8.372;2023-06-10T14:37:25;5.53;;;3.72;;
12433;SDS011;6281;49.038;8.372;2023-06-10T14:39:54;3.95;;;3.65;;
12433;SDS011;6281;49.038;8.372;2023-06-10T14:42:20;3.55;;;3.28;;
12433;SDS011;6281;49.038;8.372;2023-06-10T14:44:47;4.03;;;3.42;;
12433;SDS011;6281;49.038;8.372;2023-06-10T14:47:14;3.80;;;3.50;;
12433;SDS011;6281;49.038;8.372;2023-06-10T14:49:41;3.30;;;3.10;;
12433;SDS011;6281;49.038;8.372;2023-06-10T14:52:08;4.30;;;3.30;;
12433;SDS011;6281;49.038;8.372;2023-06-10T14:54:36;3.80;;;3.50;;
12433;SDS011;6281;49.038;8.372;2023-06-10T14:57:04;3.30;;;3.00;;
12433;SDS011;6281;49.038;8.372;2023-06-10T14:59:32;3.38;;;3.13;;
12433;SDS011;6281;49.038;8.372;2023-06-10T15:01:59;3.15;;;2.95;;
12433;SDS011;6281;49.038;8.372;2023-06-10T15:04:26;3.10;;;2.80;;
12433;SDS011;6281;49.038;8.372;2023-06-10T15:06:53;3.20;;;3.00;;
12433;SDS011;6281;49.038;8.372;2023-06-10T15:09:20;3.55;;;3.17;;
12433;SDS011;6281;49.038;8.372;2023-06-10T15:11:47;3.22;;;2.92;;
12433;SDS011;6281;49.038;8.372;2023-06-10T15:14:16;3.50;;;3.20;;
12433;SDS011;6281;49.038;8.372;2023-06-10T15:16:42;3.25;;;2.95;;
12433;SDS011;6281;49.038;8.372;2023-06-10T15:19:09;6.30;;;3.17;;
12433;SDS011;6281;49.038;8.372;2023-06-10T15:21:36;3.47;;;3.17;;
12433;SDS011;6281;49.038;8.372;2023-06-10T15:24:04;3.35;;;3.05;;
12433;SDS011;6281;49.038;8.372;2023-06-10T15:26:31;3.00;;;2.70;;
12433;SDS011;6281;49.038;8.372;2023-06-10T15:28:58;3.05;;;2.85;;
12433;SDS011;6281;49.038;8.372;2023-06-10T15:31:30;3.30;;;3.10;;